createdAt,value
2019-05-03T00:01:32.413Z,100481.36
2019-05-03T00:04:15.779Z,100470.20
2019-05-03T00:07:04.728Z,100472.05
2019-05-03T00:09:53.642Z,100475.08
2019-05-03T00:12:42.476Z,100479.12
2019-05-03T00:15:52.196Z,100476.05
2019-05-03T00:18:42.195Z,100481.67
2019-05-03T00:21:32.674Z,100483.41
2019-05-03T00:24:22.699Z,100478.70
2019-05-03T00:27:12.908Z,100487.35
2019-05-03T00:30:02.789Z,100482.53
2019-05-03T00:32:52.460Z,100483.09
2019-05-03T00:36:02.386Z,100479.08
2019-05-03T00:41:52.108Z,100487.57
2019-05-03T00:44:42.185Z,100479.64
2019-05-03T00:47:32.841Z,100487.14
2019-05-03T00:53:31.987Z,100484.98
2019-05-03T00:56:21.563Z,100485.98
2019-05-03T00:59:12.726Z,100490.39
2019-05-03T01:02:02.727Z,100490.36
2019-05-03T01:04:46.055Z,100484.36
2019-05-03T01:07:34.903Z,100484.72
2019-05-03T01:10:23.756Z,100485.30
2019-05-03T01:13:12.689Z,100481.48
2019-05-03T01:16:22.506Z,100483.89
2019-05-03T01:19:12.097Z,100484.81
2019-05-03T01:22:02.073Z,100483.02
2019-05-03T01:24:51.874Z,100491.90
2019-05-03T01:27:42.726Z,100489.88
2019-05-03T01:30:32.180Z,100489.45
2019-05-03T01:33:22.617Z,100490.19
2019-05-03T01:36:12.025Z,100489.27
2019-05-03T01:39:02.247Z,100489.93
2019-05-03T01:41:51.950Z,100486.92
2019-05-03T01:44:42.745Z,100492.16
2019-05-03T01:47:52.648Z,100490.25
2019-05-03T01:51:02.756Z,100499.07
2019-05-03T01:53:52.373Z,100503.32
2019-05-03T01:56:55.345Z,100495.67
2019-05-03T01:59:32.559Z,100506.59
2019-05-03T02:02:41.984Z,100507.94
2019-05-03T02:05:24.192Z,100508.86
2019-05-03T02:11:09.022Z,100511.30
2019-05-03T02:13:57.871Z,100508.70
2019-05-03T02:16:46.703Z,100501.78
2019-05-03T02:19:35.546Z,100503.32
2019-05-03T02:22:24.370Z,100504.19
2019-05-03T02:25:13.359Z,100507.28
2019-05-03T02:28:02.206Z,100510.63
2019-05-03T02:30:53.286Z,100515.86
2019-05-03T02:33:43.409Z,100517.20
2019-05-03T02:36:33.717Z,100518.95
2019-05-03T02:39:23.138Z,100521.21
2019-05-03T02:42:12.101Z,100519.69
2019-05-03T02:48:16.607Z,100519.38
2019-05-03T02:51:06.541Z,100525.34
2019-05-03T02:53:57.261Z,100528.27
2019-05-03T02:56:46.884Z,100530.28
2019-05-03T02:59:35.731Z,100531.52
2019-05-03T03:02:26.383Z,100524.38
2019-05-03T03:05:08.224Z,100523.40
2019-05-03T03:11:11.815Z,100529.40
2019-05-03T03:24:25.620Z,100522.25
2019-05-03T03:27:36.076Z,100524.98
2019-05-03T03:30:48.729Z,100528.20
2019-05-03T03:33:40.082Z,100525.34
2019-05-03T03:39:41.841Z,100532.05
2019-05-03T03:49:15.488Z,100540.20
2019-05-03T03:52:06.038Z,100545.27
2019-05-03T03:58:10.594Z,100550.74
2019-05-03T04:00:59.401Z,100554.98
2019-05-03T04:03:41.803Z,100559.50
2019-05-03T04:06:26.901Z,100565.03
2019-05-03T04:09:16.209Z,100564.31
2019-05-03T04:21:39.141Z,100575.17
2019-05-03T04:27:45.343Z,100582.73
2019-05-03T04:30:36.167Z,100587.83
2019-05-03T04:33:26.976Z,100589.55
2019-05-03T04:36:15.916Z,100591.42
2019-05-03T04:39:26.402Z,100592.38
2019-05-03T04:42:16.596Z,100598.16
2019-05-03T04:45:26.768Z,100604.86
2019-05-03T04:48:16.225Z,100609.30
2019-05-03T04:51:06.422Z,100620.23
2019-05-03T04:56:51.011Z,100628.06
2019-05-03T04:59:39.844Z,100636.07
2019-05-03T05:02:28.700Z,100634.53
2019-05-03T05:05:17.588Z,100632.60
2019-05-03T05:08:06.511Z,100635.00
2019-05-03T05:10:55.996Z,100643.73
2019-05-03T05:13:45.957Z,100642.17
2019-05-03T05:16:35.651Z,100645.64
2019-05-03T05:22:39.954Z,100649.95
2019-05-03T05:25:47.809Z,100651.47
2019-05-03T05:28:55.682Z,100646.50
2019-05-03T05:31:44.711Z,100654.13
2019-05-03T05:34:34.951Z,100652.00
2019-05-03T05:37:24.989Z,100658.76
2019-05-03T05:43:44.700Z,100667.38
2019-05-03T05:50:02.123Z,100662.70
2019-05-03T05:52:50.943Z,100668.03
2019-05-03T05:55:58.819Z,100667.20
2019-05-03T05:59:06.668Z,100673.28
2019-05-03T06:04:55.407Z,100685.50
2019-05-03T06:07:38.472Z,100701.45
2019-05-03T06:10:27.084Z,100712.08
2019-05-03T06:13:34.947Z,100710.66
2019-05-03T06:16:42.810Z,100705.90
2019-05-03T06:19:50.767Z,100707.67
2019-05-03T06:22:58.624Z,100698.60
2019-05-03T06:25:47.468Z,100698.70
2019-05-03T06:28:36.293Z,100694.02
2019-05-03T06:31:44.655Z,100698.02
2019-05-03T06:34:35.342Z,100693.43
2019-05-03T06:43:34.906Z,100699.06
2019-05-03T06:46:45.556Z,100688.37
2019-05-03T06:49:34.673Z,100688.89
2019-05-03T06:52:27.663Z,100683.41
2019-05-03T06:55:14.657Z,100678.50
2019-05-03T06:58:05.149Z,100681.48
2019-05-03T07:01:14.880Z,100690.42
2019-05-03T07:07:30.778Z,100681.78
2019-05-03T07:10:38.678Z,100681.67
2019-05-03T07:13:27.555Z,100690.47
2019-05-03T07:16:16.392Z,100695.49
2019-05-03T07:19:05.224Z,100696.48
2019-05-03T07:21:54.627Z,100686.91
2019-05-03T07:24:45.549Z,100685.99
2019-05-03T07:27:35.272Z,100678.59
2019-05-03T07:30:24.895Z,100682.99
2019-05-03T07:33:34.715Z,100684.77
2019-05-03T07:36:27.579Z,100693.70
2019-05-03T07:39:14.968Z,100696.96
2019-05-03T07:42:05.423Z,100693.03
2019-05-03T07:44:55.964Z,100686.02
2019-05-03T07:47:45.250Z,100689.11
2019-05-03T07:53:50.362Z,100692.36
2019-05-03T07:59:39.082Z,100686.36
2019-05-03T08:02:27.989Z,100690.34
2019-05-03T08:05:16.924Z,100685.80
2019-05-03T08:07:59.163Z,100694.95
2019-05-03T08:10:47.981Z,100687.73
2019-05-03T08:13:36.838Z,100686.91
2019-05-03T08:16:25.667Z,100686.92
2019-05-03T08:19:15.205Z,100686.95
2019-05-03T08:22:05.209Z,100692.15
2019-05-03T08:24:55.545Z,100690.84
2019-05-03T08:27:44.699Z,100690.34
2019-05-03T08:30:54.268Z,100693.47
2019-05-03T08:34:02.245Z,100693.89
2019-05-03T08:37:10.157Z,100694.77
2019-05-03T08:39:59.140Z,100699.12
2019-05-03T08:42:48.006Z,100695.20
2019-05-03T08:45:36.846Z,100700.39
2019-05-03T08:48:25.734Z,100690.39
2019-05-03T08:51:14.958Z,100694.29
2019-05-03T08:54:05.143Z,100691.29
2019-05-03T08:56:55.672Z,100689.91
2019-05-03T08:59:44.741Z,100689.44
2019-05-03T09:02:34.579Z,100697.33
2019-05-03T09:05:25.065Z,100693.10
2019-05-03T09:08:07.503Z,100696.04
2019-05-03T09:13:51.845Z,100687.55
2019-05-03T09:16:40.667Z,100684.03
2019-05-03T09:19:29.507Z,100686.85
2019-05-03T09:22:18.331Z,100692.14
2019-05-03T09:25:07.246Z,100681.70
2019-05-03T09:27:56.064Z,100685.63
2019-05-03T09:30:45.053Z,100682.05
2019-05-03T09:33:35.688Z,100685.45
2019-05-03T09:36:25.385Z,100680.70
2019-05-03T09:39:15.172Z,100678.52
2019-05-03T09:42:04.691Z,100676.77
2019-05-03T09:44:55.591Z,100670.13
2019-05-03T09:47:45.460Z,100678.73
2019-05-03T09:50:35.909Z,100672.94
2019-05-03T09:56:52.922Z,100673.77
2019-05-03T09:59:35.055Z,100669.52
2019-05-03T10:02:24.980Z,100658.30
2019-05-03T10:05:15.594Z,100658.41
2019-05-03T10:07:57.825Z,100663.25
2019-05-03T10:11:05.778Z,100660.48
2019-05-03T10:13:56.416Z,100656.34
2019-05-03T10:19:54.845Z,100657.81
2019-05-03T10:22:43.687Z,100655.55
2019-05-03T10:25:32.568Z,100657.92
2019-05-03T10:28:21.401Z,100654.33
2019-05-03T10:31:10.257Z,100648.63
2019-05-03T10:34:18.186Z,100642.67
2019-05-03T10:42:58.462Z,100644.54
2019-05-03T10:45:47.317Z,100647.73
2019-05-03T10:48:36.177Z,100645.70
2019-05-03T10:54:35.779Z,100644.23
2019-05-03T11:00:49.713Z,100636.49
2019-05-03T11:03:25.350Z,100644.37
2019-05-03T11:06:14.822Z,100640.55
2019-05-03T11:08:59.355Z,100639.48
2019-05-03T11:11:48.262Z,100641.14
2019-05-03T11:14:37.144Z,100635.73
2019-05-03T11:17:25.994Z,100636.79
2019-05-03T11:20:35.726Z,100641.14
2019-05-03T11:23:25.191Z,100640.80
2019-05-03T11:26:15.178Z,100637.66
2019-05-03T11:29:05.190Z,100640.39
2019-05-03T11:32:14.889Z,100645.25
2019-05-03T11:35:44.682Z,100642.41
2019-05-03T11:44:44.676Z,100633.72
2019-05-03T11:47:34.826Z,100631.97
2019-05-03T11:50:25.495Z,100630.45
2019-05-03T11:53:15.504Z,100634.45
2019-05-03T11:56:05.538Z,100631.06
2019-05-03T11:58:55.114Z,100625.70
2019-05-03T12:02:04.701Z,100621.89
2019-05-03T12:04:55.239Z,100621.22
2019-05-03T12:07:45.488Z,100615.53
2019-05-03T12:10:48.233Z,100623.91
2019-05-03T12:16:19.770Z,100615.92
2019-05-03T12:19:16.588Z,100612.71
2019-05-03T12:21:55.928Z,100615.16
2019-05-03T12:24:46.711Z,100612.34
2019-05-03T12:27:36.603Z,100618.19
2019-05-03T12:30:27.678Z,100614.88
2019-05-03T12:33:16.067Z,100602.98
2019-05-03T12:39:35.644Z,100600.10
2019-05-03T12:42:25.586Z,100594.18
2019-05-03T12:45:15.240Z,100589.33
2019-05-03T12:48:05.290Z,100598.14
2019-05-03T12:50:54.572Z,100585.66
2019-05-03T12:53:44.759Z,100588.66
2019-05-03T12:56:35.814Z,100599.80
2019-05-03T12:59:45.013Z,100581.83
2019-05-03T13:08:45.682Z,100581.43
2019-05-03T13:14:45.460Z,100587.86
2019-05-03T13:20:31.586Z,100572.48
2019-05-03T13:23:20.495Z,100567.21
2019-05-03T13:26:09.422Z,100570.11
2019-05-03T13:28:59.802Z,100565.89
2019-05-03T13:31:58.389Z,100568.13
2019-05-03T13:34:41.366Z,100568.64
2019-05-03T13:37:30.023Z,100565.25
2019-05-03T13:40:18.856Z,100557.64
2019-05-03T13:43:07.770Z,100561.34
2019-05-03T13:45:56.588Z,100565.11
2019-05-03T13:48:48.899Z,100555.57
2019-05-03T13:51:36.132Z,100555.57
2019-05-03T13:54:25.497Z,100553.33
2019-05-03T13:57:15.623Z,100560.17
2019-05-03T14:00:25.529Z,100555.17
2019-05-03T14:03:15.208Z,100549.05
2019-05-03T14:06:08.661Z,100547.34
2019-05-03T14:08:55.559Z,100540.92
2019-05-03T14:11:44.906Z,100544.81
2019-05-03T14:14:55.893Z,100544.91
2019-05-03T14:17:44.691Z,100538.37
2019-05-03T14:20:52.629Z,100540.42
2019-05-03T14:24:00.533Z,100541.27
2019-05-03T14:26:49.431Z,100531.89
2019-05-03T14:29:38.286Z,100531.49
2019-05-03T14:32:28.987Z,100538.90
2019-05-03T14:35:17.759Z,100529.16
2019-05-03T14:37:47.246Z,100529.85
2019-05-03T14:40:36.095Z,100528.37
2019-05-03T14:43:25.063Z,100526.83
2019-05-03T14:46:16.298Z,100523.97
2019-05-03T14:52:34.635Z,100529.33
2019-05-03T14:55:42.412Z,100528.95
2019-05-03T14:58:50.289Z,100531.56
2019-05-03T15:04:48.609Z,100527.66
2019-05-03T15:07:37.428Z,100528.13
2019-05-03T15:10:18.955Z,100528.56
2019-05-03T15:13:07.870Z,100532.03
2019-05-03T15:15:56.799Z,100526.74
2019-05-03T15:18:45.652Z,100529.38
2019-05-03T15:21:34.688Z,100533.70
2019-05-03T15:24:25.243Z,100524.06
2019-05-03T15:27:14.107Z,100531.42
2019-05-03T15:30:04.828Z,100539.11
2019-05-03T15:32:59.772Z,100539.16
2019-05-03T15:35:46.523Z,100539.08
2019-05-03T15:38:34.867Z,100545.52
2019-05-03T15:41:25.176Z,100544.52
2019-05-03T15:44:34.191Z,100542.45
2019-05-03T15:53:08.409Z,100543.77
2019-05-03T15:55:57.356Z,100550.22
2019-05-03T15:58:47.377Z,100546.63
2019-05-03T16:01:36.252Z,100545.47
2019-05-03T16:04:25.194Z,100550.18
2019-05-03T16:07:14.427Z,100544.98
2019-05-03T16:10:25.016Z,100552.34
2019-05-03T16:13:08.160Z,100541.63
2019-05-03T16:15:57.064Z,100545.48
2019-05-03T16:18:45.938Z,100538.45
2019-05-03T16:21:36.757Z,100535.09
2019-05-03T16:24:25.363Z,100532.81
2019-05-03T16:27:33.214Z,100533.55
2019-05-03T16:30:41.236Z,100532.30
2019-05-03T16:33:30.126Z,100536.52
2019-05-03T16:36:19.068Z,100525.66
2019-05-03T16:39:08.031Z,100524.42
2019-05-03T16:41:56.897Z,100520.02
2019-05-03T16:44:45.761Z,100526.59
2019-05-03T16:47:35.486Z,100519.09
2019-05-03T16:50:25.174Z,100523.70
2019-05-03T16:56:29.292Z,100530.35
2019-05-03T16:59:18.105Z,100531.80
2019-05-03T17:02:07.033Z,100528.33
2019-05-03T17:08:25.104Z,100524.76
2019-05-03T17:11:09.512Z,100516.42
2019-05-03T17:13:58.505Z,100519.69
2019-05-03T17:16:47.309Z,100512.77
2019-05-03T17:19:36.143Z,100516.11
2019-05-03T17:22:25.295Z,100510.95
2019-05-03T17:25:15.696Z,100513.52
2019-05-03T17:28:05.090Z,100507.84
2019-05-03T17:33:53.846Z,100505.98
2019-05-03T17:36:41.898Z,100502.57
2019-05-03T17:42:49.886Z,100507.28
2019-05-03T17:45:57.782Z,100507.20
2019-05-03T17:48:46.693Z,100506.89
2019-05-03T17:51:55.493Z,100500.79
2019-05-03T17:54:44.949Z,100505.77
2019-05-03T17:57:52.841Z,100501.78
2019-05-03T18:01:00.703Z,100498.84
2019-05-03T18:12:35.029Z,100499.23
2019-05-03T18:15:25.126Z,100499.53
2019-05-03T18:18:15.764Z,100496.94
2019-05-03T18:21:05.488Z,100503.80
2019-05-03T18:23:54.660Z,100501.08
2019-05-03T18:26:44.566Z,100494.11
2019-05-03T18:29:34.923Z,100497.95
2019-05-03T18:32:25.132Z,100497.41
2019-05-03T18:35:15.290Z,100499.34
2019-05-03T18:38:05.133Z,100499.67
2019-05-03T18:40:55.262Z,100492.61
2019-05-03T18:44:05.187Z,100490.12
2019-05-03T18:49:54.961Z,100494.61
2019-05-03T18:52:44.988Z,100492.17
2019-05-03T18:55:34.429Z,100489.42
2019-05-03T18:58:24.506Z,100493.81
2019-05-03T19:07:28.234Z,100494.05
2019-05-03T19:13:40.129Z,100493.14
2019-05-03T19:19:57.441Z,100497.47
2019-05-03T19:22:46.284Z,100492.75
2019-05-03T19:25:45.929Z,100498.56
2019-05-03T19:28:25.725Z,100498.08
2019-05-03T19:31:14.691Z,100495.34
2019-05-03T19:34:03.625Z,100490.00
2019-05-03T19:36:54.600Z,100479.20
2019-05-03T19:39:43.236Z,100489.99
2019-05-03T19:42:32.098Z,100490.23
2019-05-03T19:45:20.931Z,100493.52
2019-05-03T19:48:09.856Z,100485.55
2019-05-03T19:50:58.679Z,100489.13
2019-05-03T19:59:57.726Z,100488.25
2019-05-03T20:03:12.840Z,100489.13
2019-05-03T20:09:16.947Z,100482.05
2019-05-03T20:11:59.305Z,100480.25
2019-05-03T20:14:48.150Z,100482.75
2019-05-03T20:17:36.991Z,100481.48
2019-05-03T20:20:25.912Z,100476.28
2019-05-03T20:23:14.842Z,100482.46
2019-05-03T20:26:05.034Z,100481.98
2019-05-03T20:28:55.341Z,100485.88
2019-05-03T20:31:44.894Z,100484.27
2019-05-03T20:34:33.758Z,100478.16
2019-05-03T20:37:22.567Z,100477.66
2019-05-03T20:43:45.262Z,100475.80
2019-05-03T20:46:54.941Z,100475.50
2019-05-03T20:52:20.300Z,100462.91
2019-05-03T20:55:09.147Z,100461.52
2019-05-03T20:57:58.017Z,100466.88
2019-05-03T21:00:46.826Z,100462.14
2019-05-03T21:03:35.847Z,100462.90
2019-05-03T21:06:35.178Z,100450.42
2019-05-03T21:09:15.387Z,100450.20
2019-05-03T21:11:56.773Z,100456.20
2019-05-03T21:14:45.605Z,100461.19
2019-05-03T21:17:55.494Z,100462.18
2019-05-03T21:24:12.512Z,100462.06
2019-05-03T21:27:01.326Z,100458.41
2019-05-03T21:32:46.055Z,100455.33
2019-05-03T21:35:41.586Z,100452.77
2019-05-03T21:38:25.452Z,100450.47
2019-05-03T21:41:15.687Z,100433.83
2019-05-03T21:44:05.052Z,100434.27
2019-05-03T21:46:55.447Z,100426.66
2019-05-03T21:55:49.750Z,100430.09
2019-05-03T21:58:38.602Z,100424.78
2019-05-03T22:01:27.588Z,100426.66
2019-05-03T22:04:16.454Z,100426.67
2019-05-03T22:07:05.338Z,100427.02
2019-05-03T22:09:54.501Z,100428.16
2019-05-03T22:12:38.015Z,100427.72
2019-05-03T22:21:37.906Z,100408.83
2019-05-03T22:24:46.575Z,100408.40
2019-05-03T22:27:55.380Z,100407.01
2019-05-03T22:30:45.370Z,100402.07
2019-05-03T22:33:34.862Z,100401.69
2019-05-03T22:36:24.568Z,100400.59
2019-05-03T22:39:15.823Z,100392.02
2019-05-03T22:42:05.077Z,100394.30
2019-05-03T22:44:55.338Z,100383.23
2019-05-03T22:47:44.630Z,100387.09
2019-05-03T22:50:35.035Z,100378.61
2019-05-03T22:53:25.384Z,100384.73
2019-05-03T22:56:14.589Z,100377.84
2019-05-03T22:59:05.325Z,100375.89
2019-05-03T23:01:54.608Z,100377.48
2019-05-03T23:04:44.873Z,100377.91
2019-05-03T23:07:37.442Z,100374.45
2019-05-03T23:10:25.864Z,100372.75
2019-05-03T23:13:07.684Z,100369.29
2019-05-03T23:16:15.554Z,100368.00
2019-05-03T23:19:05.571Z,100370.22
2019-05-03T23:22:15.336Z,100358.94
2019-05-03T23:28:35.608Z,100354.97
2019-05-03T23:31:25.174Z,100351.55
2019-05-03T23:34:15.043Z,100347.52
2019-05-03T23:37:05.460Z,100345.69
2019-05-03T23:39:55.136Z,100345.48
2019-05-03T23:42:45.040Z,100344.97
2019-05-03T23:45:34.782Z,100338.17
2019-05-03T23:48:25.364Z,100340.06
2019-05-03T23:51:35.093Z,100336.26
2019-05-03T23:54:24.871Z,100333.25
2019-05-03T23:57:14.460Z,100334.58
